sensor_id;sensor_type;location;lat;lon;timestamp;temperature;humidity
19862;DHT22;10093;48.148;8.542;2023-11-22T00:01:05;5.10;99.90
19862;DHT22;10093;48.148;8.542;2023-11-22T00:03:31;5.10;99.90
19862;DHT22;10093;48.148;8.542;2023-11-22T00:05:57;5.00;99.90
19862;DHT22;10093;48.148;8.542;2023-11-22T00:08:22;4.90;99.90
19862;DHT22;10093;48.148;8.542;2023-11-22T00:10:48;4.90;99.90
19862;DHT22;10093;48.148;8.542;2023-11-22T00:13:14;5.00;99.90
19862;DHT22;10093;48.148;8.542;2023-11-22T00:15:39;5.00;99.90
19862;DHT22;10093;48.148;8.542;2023-11-22T00:18:05;5.10;99.90
19862;DHT22;10093;48.148;8.542;2023-11-22T00:20:31;4.90;99.90
19862;DHT22;10093;48.148;8.542;2023-11-22T00:22:57;4.90;99.90
19862;DHT22;10093;48.148;8.542;2023-11-22T00:25:22;4.80;99.90
19862;DHT22;10093;48.148;8.542;2023-11-22T00:27:48;4.70;99.90
19862;DHT22;10093;48.148;8.542;2023-11-22T00:30:14;4.70;99.90
19862;DHT22;10093;48.148;8.542;2023-11-22T00:32:40;4.60;99.90
19862;DHT22;10093;48.148;8.542;2023-11-22T00:35:06;4.70;99.90
19862;DHT22;10093;48.148;8.542;2023-11-22T00:37:33;4.60;99.90
19862;DHT22;10093;48.148;8.542;2023-11-22T00:40:00;4.80;99.90
19862;DHT22;10093;48.148;8.542;2023-11-22T00:42:26;4.80;99.90
19862;DHT22;10093;48.148;8.542;2023-11-22T00:44:52;4.80;99.90
19862;DHT22;10093;48.148;8.542;2023-11-22T00:47:19;4.70;99.90
19862;DHT22;10093;48.148;8.542;2023-11-22T00:49:44;4.60;99.90
19862;DHT22;10093;48.148;8.542;2023-11-22T00:52:10;4.60;99.90
19862;DHT22;10093;48.148;8.542;2023-11-22T00:54:35;4.60;99.90
19862;DHT22;10093;48.148;8.542;2023-11-22T00:57:01;4.50;99.90
19862;DHT22;10093;48.148;8.542;2023-11-22T00:59:27;4.60;99.90
19862;DHT22;10093;48.148;8.542;2023-11-22T01:01:52;4.70;99.90
19862;DHT22;10093;48.148;8.542;2023-11-22T01:04:18;4.60;99.90
19862;DHT22;10093;48.148;8.542;2023-11-22T01:06:43;4.60;99.90
19862;DHT22;10093;48.148;8.542;2023-11-22T01:09:09;4.60;99.90
19862;DHT22;10093;48.148;8.542;2023-11-22T01:11:37;4.60;99.90
19862;DHT22;10093;48.148;8.542;2023-11-22T01:14:03;4.60;99.90
19862;DHT22;10093;48.148;8.542;2023-11-22T01:16:28;4.60;99.90
19862;DHT22;10093;48.148;8.542;2023-11-22T01:18:54;4.50;99.90
19862;DHT22;10093;48.148;8.542;2023-11-22T01:21:20;4.60;99.90
19862;DHT22;10093;48.148;8.542;2023-11-22T01:23:45;4.60;99.90
19862;DHT22;10093;48.148;8.542;2023-11-22T01:26:11;4.60;99.90
19862;DHT22;10093;48.148;8.542;2023-11-22T01:28:37;4.80;99.90
19862;DHT22;10093;48.148;8.542;2023-11-22T01:31:05;4.90;99.90
19862;DHT22;10093;48.148;8.542;2023-11-22T01:33:31;4.90;99.90
19862;DHT22;10093;48.148;8.542;2023-11-22T01:36:01;5.00;99.90
19862;DHT22;10093;48.148;8.542;2023-11-22T01:38:27;4.90;99.90
19862;DHT22;10093;48.148;8.542;2023-11-22T01:40:53;4.80;99.90
19862;DHT22;10093;48.148;8.542;2023-11-22T01:43:19;5.00;99.90
19862;DHT22;10093;48.148;8.542;2023-11-22T01:45:45;4.90;99.90
19862;DHT22;10093;48.148;8.542;2023-11-22T01:48:11;4.80;99.90
19862;DHT22;10093;48.148;8.542;2023-11-22T01:50:40;4.80;99.90
19862;DHT22;10093;48.148;8.542;2023-11-22T01:53:08;4.90;99.90
19862;DHT22;10093;48.148;8.542;2023-11-22T01:55:35;4.90;99.90
19862;DHT22;10093;48.148;8.542;2023-11-22T01:58:01;4.80;99.90
19862;DHT22;10093;48.148;8.542;2023-11-22T02:00:32;4.80;99.90
19862;DHT22;10093;48.148;8.542;2023-11-22T02:03:01;4.90;99.90
19862;DHT22;10093;48.148;8.542;2023-11-22T02:05:27;4.90;99.90
19862;DHT22;10093;48.148;8.542;2023-11-22T02:07:53;4.90;99.90
19862;DHT22;10093;48.148;8.542;2023-11-22T02:10:18;4.80;99.90
19862;DHT22;10093;48.148;8.542;2023-11-22T02:12:44;4.90;99.90
19862;DHT22;10093;48.148;8.542;2023-11-22T02:15:10;4.90;99.90
19862;DHT22;10093;48.148;8.542;2023-11-22T02:17:36;5.00;99.90
19862;DHT22;10093;48.148;8.542;2023-11-22T02:20:02;5.10;99.90
19862;DHT22;10093;48.148;8.542;2023-11-22T02:22:31;5.00;99.90
19862;DHT22;10093;48.148;8.542;2023-11-22T02:24:57;4.90;99.90
19862;DHT22;10093;48.148;8.542;2023-11-22T02:27:23;4.90;99.90
19862;DHT22;10093;48.148;8.542;2023-11-22T02:29:48;5.00;99.90
19862;DHT22;10093;48.148;8.542;2023-11-22T02:32:15;5.00;99.90
19862;DHT22;10093;48.148;8.542;2023-11-22T02:34:41;5.00;99.90
19862;DHT22;10093;48.148;8.542;2023-11-22T02:37:06;5.00;99.90
19862;DHT22;10093;48.148;8.542;2023-11-22T02:39:55;4.90;99.90
19862;DHT22;10093;48.148;8.542;2023-11-22T02:42:22;4.90;99.90
19862;DHT22;10093;48.148;8.542;2023-11-22T02:44:48;4.90;99.90
19862;DHT22;10093;48.148;8.542;2023-11-22T02:47:14;5.10;99.90
19862;DHT22;10093;48.148;8.542;2023-11-22T02:49:39;5.00;99.90
19862;DHT22;10093;48.148;8.542;2023-11-22T02:52:05;5.10;99.90
19862;DHT22;10093;48.148;8.542;2023-11-22T02:54:31;5.00;99.90
19862;DHT22;10093;48.148;8.542;2023-11-22T02:56:57;5.00;99.90
19862;DHT22;10093;48.148;8.542;2023-11-22T02:59:22;4.90;99.90
19862;DHT22;10093;48.148;8.542;2023-11-22T03:01:48;4.90;99.90
19862;DHT22;10093;48.148;8.542;2023-11-22T03:04:13;4.70;99.90
19862;DHT22;10093;48.148;8.542;2023-11-22T03:06:39;4.70;99.90
19862;DHT22;10093;48.148;8.542;2023-11-22T03:09:05;4.50;99.90
19862;DHT22;10093;48.148;8.542;2023-11-22T03:11:31;4.50;99.90
19862;DHT22;10093;48.148;8.542;2023-11-22T03:13:57;4.60;99.90
19862;DHT22;10093;48.148;8.542;2023-11-22T03:16:23;4.50;99.90
19862;DHT22;10093;48.148;8.542;2023-11-22T03:18:49;4.50;99.90
19862;DHT22;10093;48.148;8.542;2023-11-22T03:21:16;4.40;99.90
19862;DHT22;10093;48.148;8.542;2023-11-22T03:23:42;4.40;99.90
19862;DHT22;10093;48.148;8.542;2023-11-22T03:26:08;4.20;99.90
19862;DHT22;10093;48.148;8.542;2023-11-22T03:28:35;4.20;99.90
19862;DHT22;10093;48.148;8.542;2023-11-22T03:31:00;4.20;99.90
19862;DHT22;10093;48.148;8.542;2023-11-22T03:33:28;4.20;99.90
19862;DHT22;10093;48.148;8.542;2023-11-22T03:35:53;4.00;99.90
19862;DHT22;10093;48.148;8.542;2023-11-22T03:38:19;3.90;99.90
19862;DHT22;10093;48.148;8.542;2023-11-22T03:40:46;3.80;99.90
19862;DHT22;10093;48.148;8.542;2023-11-22T03:43:12;3.60;99.90
19862;DHT22;10093;48.148;8.542;2023-11-22T03:45:37;3.70;99.90
19862;DHT22;10093;48.148;8.542;2023-11-22T03:48:03;3.60;99.90
19862;DHT22;10093;48.148;8.542;2023-11-22T03:50:29;3.50;99.90
19862;DHT22;10093;48.148;8.542;2023-11-22T03:52:54;3.40;99.90
19862;DHT22;10093;48.148;8.542;2023-11-22T03:55:20;3.40;99.90
19862;DHT22;10093;48.148;8.542;2023-11-22T03:57:45;3.50;99.90
19862;DHT22;10093;48.148;8.542;2023-11-22T04:00:11;3.60;99.90
19862;DHT22;10093;48.148;8.542;2023-11-22T04:02:38;3.60;99.90
19862;DHT22;10093;48.148;8.542;2023-11-22T04:05:04;3.80;99.90
19862;DHT22;10093;48.148;8.542;2023-11-22T04:07:30;3.80;99.90
19862;DHT22;10093;48.148;8.542;2023-11-22T04:09:55;3.80;99.90
19862;DHT22;10093;48.148;8.542;2023-11-22T04:12:21;3.60;99.90
19862;DHT22;10093;48.148;8.542;2023-11-22T04:14:47;3.70;99.90
19862;DHT22;10093;48.148;8.542;2023-11-22T04:17:12;3.50;99.90
19862;DHT22;10093;48.148;8.542;2023-11-22T04:19:38;3.30;99.90
19862;DHT22;10093;48.148;8.542;2023-11-22T04:22:03;3.20;99.90
19862;DHT22;10093;48.148;8.542;2023-11-22T04:24:29;3.20;99.90
19862;DHT22;10093;48.148;8.542;2023-11-22T04:26:54;3.30;99.90
19862;DHT22;10093;48.148;8.542;2023-11-22T04:29:20;3.40;99.90
19862;DHT22;10093;48.148;8.542;2023-11-22T04:31:45;3.40;99.90
19862;DHT22;10093;48.148;8.542;2023-11-22T04:34:11;3.50;99.90
19862;DHT22;10093;48.148;8.542;2023-11-22T04:36:37;3.50;99.90
19862;DHT22;10093;48.148;8.542;2023-11-22T04:39:04;3.30;99.90
19862;DHT22;10093;48.148;8.542;2023-11-22T04:41:29;3.30;99.90
19862;DHT22;10093;48.148;8.542;2023-11-22T04:43:55;3.20;99.90
19862;DHT22;10093;48.148;8.542;2023-11-22T04:46:21;3.00;99.90
19862;DHT22;10093;48.148;8.542;2023-11-22T04:48:46;3.10;99.90
19862;DHT22;10093;48.148;8.542;2023-11-22T04:51:16;2.90;99.90
19862;DHT22;10093;48.148;8.542;2023-11-22T04:53:42;2.70;99.90
19862;DHT22;10093;48.148;8.542;2023-11-22T04:56:09;2.90;99.90
19862;DHT22;10093;48.148;8.542;2023-11-22T04:58:35;2.90;99.90
19862;DHT22;10093;48.148;8.542;2023-11-22T05:01:01;2.80;99.90
19862;DHT22;10093;48.148;8.542;2023-11-22T05:03:27;2.80;99.90
19862;DHT22;10093;48.148;8.542;2023-11-22T05:05:53;2.80;99.90
19862;DHT22;10093;48.148;8.542;2023-11-22T05:08:18;2.70;99.90
19862;DHT22;10093;48.148;8.542;2023-11-22T05:10:44;2.60;99.90
19862;DHT22;10093;48.148;8.542;2023-11-22T05:13:09;2.50;99.90
19862;DHT22;10093;48.148;8.542;2023-11-22T05:15:36;2.30;99.90
19862;DHT22;10093;48.148;8.542;2023-11-22T05:18:02;2.20;99.90
19862;DHT22;10093;48.148;8.542;2023-11-22T05:20:50;2.10;99.90
19862;DHT22;10093;48.148;8.542;2023-11-22T05:23:19;2.00;99.90
19862;DHT22;10093;48.148;8.542;2023-11-22T05:25:44;1.80;99.90
19862;DHT22;10093;48.148;8.542;2023-11-22T05:28:10;1.80;99.90
19862;DHT22;10093;48.148;8.542;2023-11-22T05:30:35;1.70;99.90
19862;DHT22;10093;48.148;8.542;2023-11-22T05:33:01;1.50;99.90
19862;DHT22;10093;48.148;8.542;2023-11-22T05:35:27;1.60;99.90
19862;DHT22;10093;48.148;8.542;2023-11-22T05:37:52;1.50;99.90
19862;DHT22;10093;48.148;8.542;2023-11-22T05:40:18;1.60;99.90
19862;DHT22;10093;48.148;8.542;2023-11-22T05:42:43;1.60;99.90
19862;DHT22;10093;48.148;8.542;2023-11-22T05:45:15;1.60;99.90
19862;DHT22;10093;48.148;8.542;2023-11-22T05:47:40;1.80;99.90
19862;DHT22;10093;48.148;8.542;2023-11-22T05:50:07;1.80;99.90
19862;DHT22;10093;48.148;8.542;2023-11-22T05:52:33;1.90;99.90
19862;DHT22;10093;48.148;8.542;2023-11-22T05:54:59;1.90;99.90
19862;DHT22;10093;48.148;8.542;2023-11-22T05:57:28;1.90;99.90
19862;DHT22;10093;48.148;8.542;2023-11-22T05:59:54;1.80;99.90
19862;DHT22;10093;48.148;8.542;2023-11-22T06:02:19;1.70;99.90
19862;DHT22;10093;48.148;8.542;2023-11-22T06:04:45;1.50;99.90
19862;DHT22;10093;48.148;8.542;2023-11-22T06:07:11;1.60;99.90
19862;DHT22;10093;48.148;8.542;2023-11-22T06:09:36;1.60;99.90
19862;DHT22;10093;48.148;8.542;2023-11-22T06:12:02;1.50;99.90
19862;DHT22;10093;48.148;8.542;2023-11-22T06:14:27;1.30;99.90
19862;DHT22;10093;48.148;8.542;2023-11-22T06:16:53;1.20;99.90
19862;DHT22;10093;48.148;8.542;2023-11-22T06:19:18;1.20;99.90
19862;DHT22;10093;48.148;8.542;2023-11-22T06:21:44;1.40;99.90
19862;DHT22;10093;48.148;8.542;2023-11-22T06:24:10;1.60;99.90
19862;DHT22;10093;48.148;8.542;2023-11-22T06:26:42;1.50;99.90
19862;DHT22;10093;48.148;8.542;2023-11-22T06:29:07;1.60;99.90
19862;DHT22;10093;48.148;8.542;2023-11-22T06:31:33;1.60;99.90
19862;DHT22;10093;48.148;8.542;2023-11-22T06:33:59;1.70;99.90
19862;DHT22;10093;48.148;8.542;2023-11-22T06:36:26;1.70;99.90
19862;DHT22;10093;48.148;8.542;2023-11-22T06:38:53;1.60;99.90
19862;DHT22;10093;48.148;8.542;2023-11-22T06:41:19;1.30;99.90
19862;DHT22;10093;48.148;8.542;2023-11-22T06:43:47;1.40;99.90
19862;DHT22;10093;48.148;8.542;2023-11-22T06:46:13;1.30;99.90
19862;DHT22;10093;48.148;8.542;2023-11-22T06:48:41;1.30;99.90
19862;DHT22;10093;48.148;8.542;2023-11-22T06:51:07;1.30;99.90
19862;DHT22;10093;48.148;8.542;2023-11-22T06:53:32;1.30;99.90
19862;DHT22;10093;48.148;8.542;2023-11-22T06:55:58;1.20;99.90
19862;DHT22;10093;48.148;8.542;2023-11-22T06:58:24;1.20;99.90
19862;DHT22;10093;48.148;8.542;2023-11-22T07:00:49;1.20;99.90
19862;DHT22;10093;48.148;8.542;2023-11-22T07:03:15;1.20;99.90
19862;DHT22;10093;48.148;8.542;2023-11-22T07:05:41;1.20;99.90
19862;DHT22;10093;48.148;8.542;2023-11-22T07:08:06;1.10;99.90
19862;DHT22;10093;48.148;8.542;2023-11-22T07:10:32;1.00;99.90
19862;DHT22;10093;48.148;8.542;2023-11-22T07:13:01;1.20;99.90
19862;DHT22;10093;48.148;8.542;2023-11-22T07:15:27;1.40;99.90
19862;DHT22;10093;48.148;8.542;2023-11-22T07:17:53;1.50;99.90
19862;DHT22;10093;48.148;8.542;2023-11-22T07:20:19;1.60;99.90
19862;DHT22;10093;48.148;8.542;2023-11-22T07:22:46;1.70;99.90
19862;DHT22;10093;48.148;8.542;2023-11-22T07:25:12;1.60;99.90
19862;DHT22;10093;48.148;8.542;2023-11-22T07:27:47;1.60;99.90
19862;DHT22;10093;48.148;8.542;2023-11-22T07:30:13;1.70;99.90
19862;DHT22;10093;48.148;8.542;2023-11-22T07:32:40;1.80;99.90
19862;DHT22;10093;48.148;8.542;2023-11-22T07:35:06;1.80;99.90
19862;DHT22;10093;48.148;8.542;2023-11-22T07:37:34;1.80;99.90
19862;DHT22;10093;48.148;8.542;2023-11-22T07:40:01;1.80;99.90
19862;DHT22;10093;48.148;8.542;2023-11-22T07:42:29;1.80;99.90
19862;DHT22;10093;48.148;8.542;2023-11-22T07:44:54;1.80;99.90
19862;DHT22;10093;48.148;8.542;2023-11-22T07:47:22;1.70;99.90
19862;DHT22;10093;48.148;8.542;2023-11-22T07:49:52;1.70;99.90
19862;DHT22;10093;48.148;8.542;2023-11-22T07:52:21;1.70;99.90
19862;DHT22;10093;48.148;8.542;2023-11-22T07:54:47;1.70;99.90
19862;DHT22;10093;48.148;8.542;2023-11-22T07:57:13;1.70;99.90
19862;DHT22;10093;48.148;8.542;2023-11-22T07:59:39;1.80;99.90
19862;DHT22;10093;48.148;8.542;2023-11-22T08:02:05;1.80;99.90
19862;DHT22;10093;48.148;8.542;2023-11-22T08:04:37;1.60;99.90
19862;DHT22;10093;48.148;8.542;2023-11-22T08:07:03;1.60;99.90
19862;DHT22;10093;48.148;8.542;2023-11-22T08:09:30;1.60;99.90
19862;DHT22;10093;48.148;8.542;2023-11-22T08:11:59;1.70;99.90
19862;DHT22;10093;48.148;8.542;2023-11-22T08:14:28;1.70;99.90
19862;DHT22;10093;48.148;8.542;2023-11-22T08:16:54;1.80;99.90
19862;DHT22;10093;48.148;8.542;2023-11-22T08:19:20;1.80;99.90
19862;DHT22;10093;48.148;8.542;2023-11-22T08:21:49;1.80;99.90
19862;DHT22;10093;48.148;8.542;2023-11-22T08:24:14;1.80;99.90
19862;DHT22;10093;48.148;8.542;2023-11-22T08:26:40;1.80;99.90
19862;DHT22;10093;48.148;8.542;2023-11-22T08:29:06;1.80;99.90
19862;DHT22;10093;48.148;8.542;2023-11-22T08:31:33;1.80;99.90
19862;DHT22;10093;48.148;8.542;2023-11-22T08:34:01;1.80;99.90
19862;DHT22;10093;48.148;8.542;2023-11-22T08:36:29;1.80;99.90
19862;DHT22;10093;48.148;8.542;2023-11-22T08:38:58;1.90;99.90
19862;DHT22;10093;48.148;8.542;2023-11-22T08:41:27;1.60;99.90
19862;DHT22;10093;48.148;8.542;2023-11-22T08:43:52;1.60;99.90
19862;DHT22;10093;48.148;8.542;2023-11-22T08:46:18;1.40;99.90
19862;DHT22;10093;48.148;8.542;2023-11-22T08:48:43;1.10;99.90
19862;DHT22;10093;48.148;8.542;2023-11-22T08:51:09;1.30;99.90
19862;DHT22;10093;48.148;8.542;2023-11-22T08:53:38;1.40;99.90
19862;DHT22;10093;48.148;8.542;2023-11-22T08:56:04;1.50;99.90
19862;DHT22;10093;48.148;8.542;2023-11-22T08:58:34;1.10;99.90
19862;DHT22;10093;48.148;8.542;2023-11-22T09:01:00;1.10;99.90
19862;DHT22;10093;48.148;8.542;2023-11-22T09:03:25;1.30;99.90
19862;DHT22;10093;48.148;8.542;2023-11-22T09:05:52;1.40;99.90
19862;DHT22;10093;48.148;8.542;2023-11-22T09:08:19;1.20;99.90
19862;DHT22;10093;48.148;8.542;2023-11-22T09:10:46;1.10;99.90
19862;DHT22;10093;48.148;8.542;2023-11-22T09:13:13;1.10;99.90
19862;DHT22;10093;48.148;8.542;2023-11-22T09:15:42;1.00;99.90
19862;DHT22;10093;48.148;8.542;2023-11-22T09:18:10;0.90;99.90
19862;DHT22;10093;48.148;8.542;2023-11-22T09:20:35;1.00;99.90
19862;DHT22;10093;48.148;8.542;2023-11-22T09:23:01;0.90;99.90
19862;DHT22;10093;48.148;8.542;2023-11-22T09:25:30;0.80;99.90
19862;DHT22;10093;48.148;8.542;2023-11-22T09:27:57;1.00;99.90
19862;DHT22;10093;48.148;8.542;2023-11-22T09:30:27;1.10;99.90
19862;DHT22;10093;48.148;8.542;2023-11-22T09:33:12;1.40;99.90
19862;DHT22;10093;48.148;8.542;2023-11-22T09:35:40;1.60;99.90
19862;DHT22;10093;48.148;8.542;2023-11-22T09:38:07;1.40;99.90
19862;DHT22;10093;48.148;8.542;2023-11-22T09:43:09;1.20;99.90
19862;DHT22;10093;48.148;8.542;2023-11-22T09:45:35;1.30;99.90
19862;DHT22;10093;48.148;8.542;2023-11-22T09:48:10;1.20;99.90
19862;DHT22;10093;48.148;8.542;2023-11-22T09:51:14;1.20;99.90
19862;DHT22;10093;48.148;8.542;2023-11-22T09:56:09;1.20;99.90
19862;DHT22;10093;48.148;8.542;2023-11-22T09:58:39;1.30;99.90
19862;DHT22;10093;48.148;8.542;2023-11-22T10:01:05;1.30;99.90
19862;DHT22;10093;48.148;8.542;2023-11-22T10:03:31;1.30;99.90
19862;DHT22;10093;48.148;8.542;2023-11-22T10:05:57;1.30;99.90
19862;DHT22;10093;48.148;8.542;2023-11-22T10:08:27;1.40;99.90
19862;DHT22;10093;48.148;8.542;2023-11-22T10:10:55;1.30;99.90
19862;DHT22;10093;48.148;8.542;2023-11-22T10:13:24;1.40;99.90
19862;DHT22;10093;48.148;8.542;2023-11-22T10:15:50;1.40;99.90
19862;DHT22;10093;48.148;8.542;2023-11-22T10:18:16;1.50;99.90
19862;DHT22;10093;48.148;8.542;2023-11-22T10:20:44;1.70;99.90
19862;DHT22;10093;48.148;8.542;2023-11-22T10:23:16;1.80;99.90
19862;DHT22;10093;48.148;8.542;2023-11-22T10:25:48;1.70;99.90
19862;DHT22;10093;48.148;8.542;2023-11-22T10:28:17;1.50;99.90
19862;DHT22;10093;48.148;8.542;2023-11-22T10:30:45;1.40;99.90
19862;DHT22;10093;48.148;8.542;2023-11-22T10:33:11;1.40;99.90
19862;DHT22;10093;48.148;8.542;2023-11-22T10:35:47;1.30;99.90
19862;DHT22;10093;48.148;8.542;2023-11-22T10:38:17;1.30;99.90
19862;DHT22;10093;48.148;8.542;2023-11-22T10:40:44;1.50;99.90
19862;DHT22;10093;48.148;8.542;2023-11-22T10:43:16;1.60;99.90
19862;DHT22;10093;48.148;8.542;2023-11-22T10:45:43;1.70;99.90
19862;DHT22;10093;48.148;8.542;2023-11-22T10:48:16;1.30;99.90
19862;DHT22;10093;48.148;8.542;2023-11-22T10:50:47;1.40;99.90
19862;DHT22;10093;48.148;8.542;2023-11-22T10:53:15;1.40;99.90
19862;DHT22;10093;48.148;8.542;2023-11-22T10:55:45;1.40;99.90
19862;DHT22;10093;48.148;8.542;2023-11-22T10:58:14;1.50;99.90
19862;DHT22;10093;48.148;8.542;2023-11-22T11:00:41;1.70;99.90
19862;DHT22;10093;48.148;8.542;2023-11-22T11:03:20;1.80;99.90
19862;DHT22;10093;48.148;8.542;2023-11-22T11:06:08;1.60;99.90
19862;DHT22;10093;48.148;8.542;2023-11-22T11:08:38;1.50;99.90
19862;DHT22;10093;48.148;8.542;2023-11-22T11:11:05;1.40;99.90
19862;DHT22;10093;48.148;8.542;2023-11-22T11:13:31;1.30;99.90
19862;DHT22;10093;48.148;8.542;2023-11-22T11:15:58;1.30;99.90
19862;DHT22;10093;48.148;8.542;2023-11-22T11:18:25;1.10;99.90
19862;DHT22;10093;48.148;8.542;2023-11-22T11:20:55;1.20;99.90
19862;DHT22;10093;48.148;8.542;2023-11-22T11:23:23;1.40;99.90
19862;DHT22;10093;48.148;8.542;2023-11-22T11:25:51;1.40;99.90
19862;DHT22;10093;48.148;8.542;2023-11-22T11:28:18;1.20;99.90
19862;DHT22;10093;48.148;8.542;2023-11-22T11:30:48;1.20;99.90
19862;DHT22;10093;48.148;8.542;2023-11-22T11:33:15;1.00;99.90
19862;DHT22;10093;48.148;8.542;2023-11-22T11:35:49;0.80;99.90
19862;DHT22;10093;48.148;8.542;2023-11-22T11:38:17;0.80;99.90
19862;DHT22;10093;48.148;8.542;2023-11-22T11:40:46;0.80;99.90
19862;DHT22;10093;48.148;8.542;2023-11-22T11:43:12;0.90;99.90
19862;DHT22;10093;48.148;8.542;2023-11-22T11:45:47;0.90;99.90
19862;DHT22;10093;48.148;8.542;2023-11-22T11:48:14;1.10;99.90
19862;DHT22;10093;48.148;8.542;2023-11-22T11:50:40;1.00;99.90
19862;DHT22;10093;48.148;8.542;2023-11-22T11:53:07;0.80;99.90
19862;DHT22;10093;48.148;8.542;2023-11-22T11:55:32;0.80;99.90
19862;DHT22;10093;48.148;8.542;2023-11-22T11:58:05;1.00;99.90
19862;DHT22;10093;48.148;8.542;2023-11-22T12:00:33;1.30;99.90
19862;DHT22;10093;48.148;8.542;2023-11-22T12:02:59;0.90;99.90
19862;DHT22;10093;48.148;8.542;2023-11-22T12:05:24;0.80;99.90
19862;DHT22;10093;48.148;8.542;2023-11-22T12:07:50;0.80;99.90
19862;DHT22;10093;48.148;8.542;2023-11-22T12:10:16;0.80;99.90
19862;DHT22;10093;48.148;8.542;2023-11-22T12:12:43;0.90;99.90
19862;DHT22;10093;48.148;8.542;2023-11-22T12:15:11;1.20;99.90
19862;DHT22;10093;48.148;8.542;2023-11-22T12:17:36;1.20;99.90
19862;DHT22;10093;48.148;8.542;2023-11-22T12:20:14;1.30;99.90
19862;DHT22;10093;48.148;8.542;2023-11-22T12:22:41;1.50;99.90
19862;DHT22;10093;48.148;8.542;2023-11-22T12:25:07;1.70;99.90
19862;DHT22;10093;48.148;8.542;2023-11-22T12:27:33;1.80;99.90
19862;DHT22;10093;48.148;8.542;2023-11-22T12:29:59;1.70;99.90
19862;DHT22;10093;48.148;8.542;2023-11-22T12:32:25;1.60;99.90
19862;DHT22;10093;48.148;8.542;2023-11-22T12:34:51;1.40;99.90
19862;DHT22;10093;48.148;8.542;2023-11-22T12:37:20;1.00;99.90
19862;DHT22;10093;48.148;8.542;2023-11-22T12:39:47;1.00;99.90
19862;DHT22;10093;48.148;8.542;2023-11-22T12:42:13;0.90;99.90
19862;DHT22;10093;48.148;8.542;2023-11-22T12:44:49;0.90;99.90
19862;DHT22;10093;48.148;8.542;2023-11-22T12:47:31;1.00;99.90
19862;DHT22;10093;48.148;8.542;2023-11-22T12:50:00;1.00;99.90
19862;DHT22;10093;48.148;8.542;2023-11-22T12:52:26;1.00;99.90
19862;DHT22;10093;48.148;8.542;2023-11-22T12:54:52;1.00;99.90
19862;DHT22;10093;48.148;8.542;2023-11-22T12:57:18;1.10;99.90
19862;DHT22;10093;48.148;8.542;2023-11-22T12:59:44;1.00;99.90
19862;DHT22;10093;48.148;8.542;2023-11-22T13:02:10;0.90;99.90
19862;DHT22;10093;48.148;8.542;2023-11-22T13:04:35;0.90;99.90
19862;DHT22;10093;48.148;8.542;2023-11-22T13:07:01;0.80;99.90
19862;DHT22;10093;48.148;8.542;2023-11-22T13:09:27;0.80;99.90
19862;DHT22;10093;48.148;8.542;2023-11-22T13:11:53;0.80;99.90
19862;DHT22;10093;48.148;8.542;2023-11-22T13:14:18;0.70;99.90
19862;DHT22;10093;48.148;8.542;2023-11-22T13:16:44;0.80;99.90
19862;DHT22;10093;48.148;8.542;2023-11-22T13:19:10;0.90;99.90
19862;DHT22;10093;48.148;8.542;2023-11-22T13:21:36;0.90;99.90
19862;DHT22;10093;48.148;8.542;2023-11-22T13:24:02;1.00;99.90
19862;DHT22;10093;48.148;8.542;2023-11-22T13:26:29;1.00;99.90
19862;DHT22;10093;48.148;8.542;2023-11-22T13:28:55;1.10;99.90
19862;DHT22;10093;48.148;8.542;2023-11-22T13:31:21;1.10;99.90
19862;DHT22;10093;48.148;8.542;2023-11-22T13:33:47;1.30;99.90
19862;DHT22;10093;48.148;8.542;2023-11-22T13:36:13;1.10;99.90
19862;DHT22;10093;48.148;8.542;2023-11-22T13:38:42;1.00;99.90
19862;DHT22;10093;48.148;8.542;2023-11-22T13:41:08;0.90;99.90
19862;DHT22;10093;48.148;8.542;2023-11-22T13:43:34;0.90;99.90
19862;DHT22;10093;48.148;8.542;2023-11-22T13:46:00;0.80;99.90
19862;DHT22;10093;48.148;8.542;2023-11-22T13:48:26;0.70;99.90
19862;DHT22;10093;48.148;8.542;2023-11-22T13:50:51;0.60;99.90
19862;DHT22;10093;48.148;8.542;2023-11-22T13:53:17;0.60;99.90
19862;DHT22;10093;48.148;8.542;2023-11-22T13:55:47;0.60;99.90
19862;DHT22;10093;48.148;8.542;2023-11-22T13:58:13;0.50;99.90
19862;DHT22;10093;48.148;8.542;2023-11-22T14:00:39;0.60;99.90
19862;DHT22;10093;48.148;8.542;2023-11-22T14:03:04;0.70;99.90
19862;DHT22;10093;48.148;8.542;2023-11-22T14:05:32;1.00;99.90
19862;DHT22;10093;48.148;8.542;2023-11-22T14:07:59;1.20;99.90
19862;DHT22;10093;48.148;8.542;2023-11-22T14:10:25;1.30;99.90
19862;DHT22;10093;48.148;8.542;2023-11-22T14:12:51;1.40;99.90
19862;DHT22;10093;48.148;8.542;2023-11-22T14:15:18;1.20;99.90
19862;DHT22;10093;48.148;8.542;2023-11-22T14:17:45;1.20;99.90
19862;DHT22;10093;48.148;8.542;2023-11-22T14:20:15;1.10;99.90
19862;DHT22;10093;48.148;8.542;2023-11-22T14:22:40;0.90;99.90
19862;DHT22;10093;48.148;8.542;2023-11-22T14:25:08;0.90;99.90
19862;DHT22;10093;48.148;8.542;2023-11-22T14:27:38;0.80;99.90
19862;DHT22;10093;48.148;8.542;2023-11-22T14:30:04;0.70;99.90
19862;DHT22;10093;48.148;8.542;2023-11-22T14:32:36;0.60;99.90
19862;DHT22;10093;48.148;8.542;2023-11-22T14:35:03;0.50;99.90
19862;DHT22;10093;48.148;8.542;2023-11-22T14:37:28;0.50;99.90
19862;DHT22;10093;48.148;8.542;2023-11-22T14:39:56;0.50;99.90
19862;DHT22;10093;48.148;8.542;2023-11-22T14:42:21;0.40;99.90
19862;DHT22;10093;48.148;8.542;2023-11-22T14:44:47;0.40;99.90
19862;DHT22;10093;48.148;8.542;2023-11-22T14:47:14;0.50;99.90
19862;DHT22;10093;48.148;8.542;2023-11-22T14:49:44;0.50;99.90
19862;DHT22;10093;48.148;8.542;2023-11-22T14:52:10;0.40;99.90
19862;DHT22;10093;48.148;8.542;2023-11-22T14:54:38;0.40;99.90
19862;DHT22;10093;48.148;8.542;2023-11-22T14:57:04;0.40;99.90
19862;DHT22;10093;48.148;8.542;2023-11-22T14:59:31;0.40;99.90
19862;DHT22;10093;48.148;8.542;2023-11-22T15:01:57;0.30;99.90
19862;DHT22;10093;48.148;8.542;2023-11-22T15:04:25;0.30;99.90
19862;DHT22;10093;48.148;8.542;2023-11-22T15:06:51;0.40;99.90
19862;DHT22;10093;48.148;8.542;2023-11-22T15:09:17;0.40;99.90
19862;DHT22;10093;48.148;8.542;2023-11-22T15:11:43;0.40;99.90
19862;DHT22;10093;48.148;8.542;2023-11-22T15:14:09;0.70;99.90
19862;DHT22;10093;48.148;8.542;2023-11-22T15:16:35;1.00;99.90
19862;DHT22;10093;48.148;8.542;2023-11-22T15:19:03;0.90;99.90
19862;DHT22;10093;48.148;8.542;2023-11-22T15:21:30;0.80;99.90
19862;DHT22;10093;48.148;8.542;2023-11-22T15:23:55;0.80;99.90
19862;DHT22;10093;48.148;8.542;2023-11-22T15:26:22;0.70;99.90
19862;DHT22;10093;48.148;8.542;2023-11-22T15:28:47;0.50;99.90
19862;DHT22;10093;48.148;8.542;2023-11-22T15:31:16;0.40;99.90
19862;DHT22;10093;48.148;8.542;2023-11-22T15:33:42;0.50;99.90
19862;DHT22;10093;48.148;8.542;2023-11-22T15:36:08;0.50;99.90
19862;DHT22;10093;48.148;8.542;2023-11-22T15:38:34;0.50;99.90
19862;DHT22;10093;48.148;8.542;2023-11-22T15:41:02;0.40;99.90
19862;DHT22;10093;48.148;8.542;2023-11-22T15:43:30;0.40;99.90
19862;DHT22;10093;48.148;8.542;2023-11-22T15:45:57;0.50;99.90
19862;DHT22;10093;48.148;8.542;2023-11-22T15:48:24;0.80;99.90